Time;durP1;ratioP1;P1;durP2;ratioP2;P2;SDS_P1;SDS_P2;PMS_P1;PMS_P2;Temp;Humidity;BMP_temperature;BMP_pressure;BME280_temperature;BME280_humidity;BME280_pressure;Samples;Min_cycle;Max_cycle;Signal;HPM_P1;HPM_P2
2021/07/22 00:00:06;;;;;;;7.40;6.60;;;16.40;99.90;;;;;;5086607;28;20512;-67
2021/07/22 00:02:32;;;;;;;8.27;6.37;;;16.40;99.90;;;;;;5086507;28;20457;-67
2021/07/22 00:05:00;;;;;;;6.83;5.57;;;16.40;99.90;;;;;;5086350;28;20985;-68
2021/07/22 00:07:27;;;;;;;6.67;6.07;;;16.30;99.90;;;;;;5086382;28;20457;-68
2021/07/22 00:09:54;;;;;;;7.10;6.20;;;16.30;99.90;;;;;;5086105;28;20457;-67
2021/07/22 00:12:20;;;;;;;7.70;5.77;;;16.30;99.90;;;;;;5086218;28;20466;-67
2021/07/22 00:14:47;;;;;;;7.07;5.63;;;16.20;99.90;;;;;;5086023;28;20489;-67
2021/07/22 00:17:14;;;;;;;7.17;5.93;;;16.20;99.90;;;;;;5084981;28;20474;-67
2021/07/22 00:19:40;;;;;;;8.77;5.47;;;16.20;99.90;;;;;;5085842;28;20457;-67
2021/07/22 00:22:08;;;;;;;7.83;6.00;;;16.20;99.90;;;;;;5087661;28;20461;-67
2021/07/22 00:24:36;;;;;;;7.20;5.87;;;16.10;99.90;;;;;;5227012;22;20501;-73
2021/07/22 00:27:03;;;;;;;6.90;5.90;;;16.10;99.90;;;;;;5069528;28;20486;-73
2021/07/22 00:29:31;;;;;;;6.93;6.23;;;16.10;99.90;;;;;;5068643;28;20458;-73
2021/07/22 00:31:58;;;;;;;7.67;6.87;;;16.10;99.90;;;;;;5069500;28;20666;-73
2021/07/22 00:34:24;;;;;;;7.13;5.80;;;16.10;99.90;;;;;;5069132;28;20486;-73
2021/07/22 00:36:51;;;;;;;8.10;6.17;;;16.10;99.90;;;;;;5069598;28;20458;-73
2021/07/22 00:39:19;;;;;;;6.60;6.00;;;16.00;99.90;;;;;;5068479;28;20462;-73
2021/07/22 00:41:46;;;;;;;8.57;6.30;;;16.00;99.90;;;;;;5069253;28;20458;-73
2021/07/22 00:44:12;;;;;;;7.27;5.53;;;15.90;99.90;;;;;;5069028;28;20505;-74
2021/07/22 00:46:39;;;;;;;6.30;5.70;;;15.90;99.90;;;;;;5069752;28;20458;-73
2021/07/22 00:49:09;;;;;;;6.53;5.43;;;15.90;99.90;;;;;;5069437;28;20466;-73
2021/07/22 00:51:36;;;;;;;6.17;5.57;;;15.80;99.90;;;;;;5069686;28;20458;-73
2021/07/22 00:54:04;;;;;;;6.70;6.00;;;15.80;99.90;;;;;;5069429;28;21005;-73
2021/07/22 00:56:32;;;;;;;7.87;6.17;;;15.70;99.90;;;;;;5069349;28;20462;-73
2021/07/22 00:58:59;;;;;;;6.50;5.90;;;15.70;99.90;;;;;;5069625;28;20478;-73
2021/07/22 01:01:25;;;;;;;10.00;6.10;;;15.80;99.90;;;;;;5068770;28;20558;-73
2021/07/22 01:03:52;;;;;;;7.07;5.90;;;15.80;99.90;;;;;;5069360;28;20462;-73
2021/07/22 01:06:19;;;;;;;7.50;5.67;;;15.80;99.90;;;;;;5069251;28;20458;-73
2021/07/22 01:08:45;;;;;;;5.80;5.17;;;15.80;99.90;;;;;;5069439;28;20467;-73
2021/07/22 01:11:12;;;;;;;6.90;5.73;;;15.70;99.90;;;;;;5068702;28;20463;-73
2021/07/22 01:13:40;;;;;;;8.07;6.30;;;15.70;99.90;;;;;;5069059;28;20470;-73
2021/07/22 01:16:07;;;;;;;9.83;6.47;;;15.70;99.90;;;;;;5069107;28;20482;-73
2021/07/22 01:18:34;;;;;;;7.50;5.37;;;15.60;99.90;;;;;;5069363;28;20474;-73
2021/07/22 01:21:02;;;;;;;8.03;6.97;;;15.60;99.90;;;;;;5068767;28;20458;-73
2021/07/22 01:23:29;;;;;;;6.13;5.53;;;15.60;99.90;;;;;;5068774;28;20470;-73
2021/07/22 01:25:55;;;;;;;6.20;5.60;;;15.60;99.90;;;;;;5069231;28;20470;-73
2021/07/22 01:28:22;;;;;;;7.17;5.90;;;15.50;99.90;;;;;;5068806;28;20462;-73
2021/07/22 01:30:49;;;;;;;6.20;5.30;;;15.50;99.90;;;;;;5068531;28;20459;-73
2021/07/22 01:33:15;;;;;;;6.00;5.40;;;15.40;99.90;;;;;;5068549;28;20458;-73
2021/07/22 01:35:42;;;;;;;6.40;5.70;;;15.40;99.90;;;;;;5069013;28;20938;-73
2021/07/22 01:38:10;;;;;;;6.37;5.73;;;15.40;99.90;;;;;;5069072;28;20462;-73
2021/07/22 01:40:37;;;;;;;8.67;6.37;;;15.40;99.90;;;;;;5068424;28;20458;-73
2021/07/22 01:43:05;;;;;;;7.40;6.07;;;15.40;99.90;;;;;;5069015;28;20826;-73
2021/07/22 01:45:32;;;;;;;7.90;6.00;;;15.40;99.90;;;;;;5068894;28;20474;-73
2021/07/22 01:47:59;;;;;;;7.40;6.47;;;15.30;99.90;;;;;;5069028;28;20865;-73
2021/07/22 01:50:26;;;;;;;7.70;6.33;;;15.40;99.90;;;;;;5068212;28;20959;-73
2021/07/22 01:52:53;;;;;;;7.50;6.63;;;15.30;99.90;;;;;;5069193;28;20485;-73
2021/07/22 01:55:21;;;;;;;6.90;5.70;;;15.30;99.90;;;;;;5068718;28;20486;-73
2021/07/22 01:57:48;;;;;;;8.10;6.57;;;15.30;99.90;;;;;;5069130;28;20458;-73
2021/07/22 02:00:15;;;;;;;8.73;6.13;;;15.30;99.90;;;;;;5068180;28;20466;-73
2021/07/22 02:02:42;;;;;;;7.90;5.53;;;15.20;99.90;;;;;;5068828;28;20466;-72
2021/07/22 02:05:10;;;;;;;6.63;5.93;;;15.20;99.90;;;;;;5068893;28;20506;-73
2021/07/22 02:07:36;;;;;;;8.93;6.40;;;15.20;99.90;;;;;;5068908;28;20462;-73
2021/07/22 02:10:04;;;;;;;7.80;6.27;;;15.20;99.90;;;;;;5068271;28;20458;-73
2021/07/22 02:12:32;;;;;;;8.10;6.70;;;15.20;99.90;;;;;;5068486;28;20473;-73
2021/07/22 02:14:59;;;;;;;8.00;5.83;;;15.20;99.90;;;;;;5068577;28;20490;-73
2021/07/22 02:17:25;;;;;;;6.73;6.03;;;15.10;99.90;;;;;;5068589;28;20463;-73
2021/07/22 02:19:52;;;;;;;7.10;5.70;;;15.10;99.90;;;;;;5068220;28;20458;-73
2021/07/22 02:22:19;;;;;;;8.70;5.60;;;15.10;99.90;;;;;;5068709;28;20840;-73
2021/07/22 02:24:45;;;;;;;8.23;6.30;;;15.10;99.90;;;;;;5068461;28;20498;-73
2021/07/22 02:27:12;;;;;;;8.20;6.80;;;15.10;99.90;;;;;;5068528;28;20470;-73
2021/07/22 02:29:40;;;;;;;6.90;6.10;;;15.00;99.90;;;;;;5068194;28;20458;-73
2021/07/22 02:32:08;;;;;;;7.40;6.20;;;15.00;99.90;;;;;;5068527;28;20473;-73
2021/07/22 02:34:34;;;;;;;7.27;5.60;;;15.00;99.90;;;;;;5068253;28;21186;-74
2021/07/22 02:37:01;;;;;;;9.13;6.43;;;15.00;99.90;;;;;;5068568;28;20467;-73
2021/07/22 02:39:28;;;;;;;9.23;6.80;;;15.00;99.90;;;;;;5069503;28;20460;-73
2021/07/22 02:41:54;;;;;;;7.53;5.70;;;15.00;99.90;;;;;;5072128;28;20466;-73
2021/07/22 02:44:21;;;;;;;7.60;5.73;;;14.90;99.90;;;;;;5071713;28;20482;-73
2021/07/22 02:46:49;;;;;;;7.10;6.40;;;14.90;99.90;;;;;;5071997;28;20458;-73
2021/07/22 02:49:16;;;;;;;9.50;6.20;;;14.90;99.90;;;;;;5071324;28;20466;-74
2021/07/22 02:51:42;;;;;;;6.27;5.67;;;14.90;99.90;;;;;;5071757;28;20466;-73
2021/07/22 02:54:11;;;;;;;8.33;6.77;;;14.80;99.90;;;;;;5071684;28;20501;-74
2021/07/22 02:56:38;;;;;;;8.20;6.77;;;14.80;99.90;;;;;;5071847;28;20914;-73
2021/07/22 02:59:08;;;;;;;6.73;5.97;;;14.80;99.90;;;;;;5071592;28;20480;-73
2021/07/22 03:01:34;;;;;;;7.97;6.43;;;14.80;99.90;;;;;;5071461;28;20466;-74
2021/07/22 03:04:03;;;;;;;7.53;5.93;;;14.80;99.90;;;;;;5071502;28;21012;-73
2021/07/22 03:06:30;;;;;;;7.33;6.23;;;14.80;99.90;;;;;;5071593;28;20461;-73
2021/07/22 03:08:56;;;;;;;6.33;5.73;;;14.80;99.90;;;;;;5071540;28;20474;-73
2021/07/22 03:11:23;;;;;;;7.30;6.43;;;14.80;99.90;;;;;;5070878;28;20458;-73
2021/07/22 03:13:49;;;;;;;8.17;5.60;;;14.70;99.90;;;;;;5071171;28;20454;-74
2021/07/22 03:16:16;;;;;;;9.53;6.80;;;14.70;99.90;;;;;;5071150;28;20493;-73
2021/07/22 03:18:43;;;;;;;7.50;6.47;;;14.70;99.90;;;;;;5071435;28;20465;-73
2021/07/22 03:21:11;;;;;;;8.13;6.10;;;14.70;99.90;;;;;;5070636;28;20455;-73
2021/07/22 03:23:38;;;;;;;6.60;5.90;;;14.70;99.90;;;;;;5071201;28;20496;-73
2021/07/22 03:26:04;;;;;;;7.73;6.70;;;14.70;99.90;;;;;;5071431;28;20458;-74
2021/07/22 03:28:31;;;;;;;8.30;6.20;;;14.70;99.90;;;;;;5070962;28;20466;-74
2021/07/22 03:30:57;;;;;;;8.90;5.90;;;14.70;99.90;;;;;;5070433;28;20686;-74
2021/07/22 03:33:24;;;;;;;6.30;5.70;;;14.60;99.90;;;;;;5070851;28;20808;-74
2021/07/22 03:35:51;;;;;;;7.50;6.10;;;14.60;99.90;;;;;;5081934;28;20490;-75
2021/07/22 03:38:19;;;;;;;6.93;6.23;;;14.60;99.90;;;;;;5079323;28;20464;-74
2021/07/22 03:40:45;;;;;;;7.80;6.80;;;14.70;99.90;;;;;;5080390;28;20469;-75
2021/07/22 03:43:12;;;;;;;6.77;5.90;;;14.60;99.90;;;;;;5080296;28;20477;-76
2021/07/22 03:45:39;;;;;;;6.67;6.00;;;14.60;99.90;;;;;;5080769;28;20484;-76
2021/07/22 03:48:06;;;;;;;8.67;6.20;;;14.50;99.90;;;;;;5082055;28;20458;-75
2021/07/22 03:50:33;;;;;;;9.50;6.70;;;14.50;99.90;;;;;;5079953;28;20554;-75
2021/07/22 03:52:59;;;;;;;7.82;6.15;;;14.50;99.90;;;;;;5080764;28;20970;-74
2021/07/22 03:55:28;;;;;;;6.87;6.17;;;14.50;99.90;;;;;;5082360;28;20227;-75
2021/07/22 03:57:56;;;;;;;7.87;6.17;;;14.40;99.90;;;;;;5085901;28;20472;-74
2021/07/22 04:00:23;;;;;;;8.40;6.10;;;14.50;99.90;;;;;;5071029;28;20455;-74
2021/07/22 04:02:59;;;;;;;7.33;6.40;;;14.50;99.90;;;;;;5072053;28;20968;-74
2021/07/22 04:05:26;;;;;;;6.60;5.87;;;14.50;99.90;;;;;;5082044;28;20816;-74
2021/07/22 04:07:55;;;;;;;9.37;6.27;;;14.50;99.90;;;;;;5071343;28;20493;-74
2021/07/22 04:10:22;;;;;;;9.60;6.63;;;14.50;99.90;;;;;;5069940;28;20454;-75
2021/07/22 04:12:55;;;;;;;12.87;6.97;;;14.50;99.90;;;;;;5075114;28;20458;-74
2021/07/22 04:15:22;;;;;;;8.70;6.80;;;14.50;99.90;;;;;;5079355;28;20482;-75
2021/07/22 04:17:49;;;;;;;8.13;6.63;;;14.50;99.90;;;;;;5083195;28;20964;-74
2021/07/22 04:20:16;;;;;;;6.93;6.23;;;14.50;99.90;;;;;;5083299;28;20449;-75
2021/07/22 04:22:43;;;;;;;6.57;5.83;;;14.40;99.90;;;;;;5089108;28;20454;-75
2021/07/22 04:25:10;;;;;;;9.93;6.60;;;14.40;99.90;;;;;;5089620;28;21004;-76
2021/07/22 04:27:37;;;;;;;7.07;6.03;;;14.40;99.90;;;;;;5089822;28;20469;-75
2021/07/22 04:30:06;;;;;;;7.30;6.27;;;14.50;99.90;;;;;;5089475;28;20464;-75
2021/07/22 04:32:33;;;;;;;8.67;7.23;;;14.40;99.90;;;;;;5090680;28;20484;-75
2021/07/22 04:35:01;;;;;;;8.13;6.90;;;14.50;99.90;;;;;;5089579;28;20877;-76
2021/07/22 04:37:27;;;;;;;7.30;6.60;;;14.50;99.90;;;;;;5089598;28;20866;-76
2021/07/22 04:39:54;;;;;;;10.13;6.00;;;14.50;99.90;;;;;;5088895;28;20465;-76
2021/07/22 04:42:21;;;;;;;7.90;6.30;;;14.50;99.90;;;;;;5089924;28;20462;-76
2021/07/22 04:44:47;;;;;;;8.17;7.13;;;14.50;99.90;;;;;;5091253;28;20473;-76
2021/07/22 04:47:15;;;;;;;6.33;5.77;;;14.60;99.90;;;;;;5091798;28;20457;-76
2021/07/22 04:49:42;;;;;;;7.70;6.10;;;14.60;99.90;;;;;;5090795;28;20948;-76
2021/07/22 04:52:09;;;;;;;9.50;6.93;;;14.60;99.90;;;;;;5091073;28;20837;-76
2021/07/22 04:54:35;;;;;;;9.10;7.20;;;14.70;99.90;;;;;;5091240;28;20485;-76
2021/07/22 04:57:02;;;;;;;7.47;6.73;;;14.70;99.90;;;;;;5090882;28;20485;-76
2021/07/22 04:59:29;;;;;;;6.57;5.97;;;14.80;99.90;;;;;;5090137;28;20461;-77
2021/07/22 05:01:56;;;;;;;7.77;6.10;;;14.80;99.90;;;;;;5090182;28;20462;-76
2021/07/22 05:04:24;;;;;;;8.23;7.10;;;14.90;99.90;;;;;;5090248;28;21019;-76
2021/07/22 05:06:51;;;;;;;7.10;6.40;;;14.90;99.90;;;;;;5090442;28;20453;-76
2021/07/22 05:09:18;;;;;;;8.43;7.00;;;15.00;99.90;;;;;;5090317;28;21508;-76
2021/07/22 05:11:44;;;;;;;7.57;6.40;;;15.00;99.90;;;;;;5090145;28;20457;-76
2021/07/22 05:14:11;;;;;;;8.53;6.43;;;15.10;99.90;;;;;;5090147;28;20816;-76
2021/07/22 05:16:38;;;;;;;7.07;6.37;;;15.10;99.90;;;;;;5090104;28;20488;-77
2021/07/22 05:19:04;;;;;;;7.70;6.80;;;15.20;99.90;;;;;;5089884;28;20465;-76
2021/07/22 05:21:32;;;;;;;6.93;6.30;;;15.20;99.90;;;;;;5090131;28;20475;-76
2021/07/22 05:23:59;;;;;;;7.60;6.90;;;15.30;99.90;;;;;;5089853;28;21181;-76
2021/07/22 05:26:26;;;;;;;9.30;6.70;;;15.30;99.90;;;;;;5089888;28;20797;-76
2021/07/22 05:28:52;;;;;;;7.40;6.67;;;15.40;99.90;;;;;;5089923;28;20839;-76
2021/07/22 05:31:19;;;;;;;7.00;6.13;;;15.40;99.90;;;;;;5089161;28;20832;-76
2021/07/22 05:33:46;;;;;;;6.90;6.20;;;15.40;99.90;;;;;;5089563;28;20461;-76
2021/07/22 05:36:12;;;;;;;9.57;7.30;;;15.50;99.90;;;;;;5089577;28;20477;-76
2021/07/22 05:38:40;;;;;;;8.00;7.20;;;15.50;99.90;;;;;;5089699;28;20466;-76
2021/07/22 05:41:09;;;;;;;6.80;6.00;;;15.60;99.90;;;;;;5089553;28;21275;-76
2021/07/22 05:43:36;;;;;;;7.77;7.07;;;15.60;99.90;;;;;;5089715;28;20527;-76
2021/07/22 05:46:03;;;;;;;7.97;6.30;;;15.70;99.90;;;;;;5089675;28;20477;-76
2021/07/22 05:48:30;;;;;;;7.77;6.97;;;15.80;99.90;;;;;;5089728;28;20465;-76
2021/07/22 05:51:00;;;;;;;8.23;6.73;;;15.80;99.90;;;;;;5089238;28;20836;-76
2021/07/22 05:53:28;;;;;;;8.47;7.50;;;15.90;99.90;;;;;;5089527;28;20834;-76
2021/07/22 05:55:58;;;;;;;8.30;7.20;;;16.00;99.90;;;;;;5089583;28;21023;-76
2021/07/22 05:58:25;;;;;;;10.63;7.00;;;16.10;99.90;;;;;;5089258;28;20465;-77
2021/07/22 06:00:52;;;;;;;8.40;7.60;;;16.10;99.90;;;;;;5088757;28;20843;-77
2021/07/22 06:03:19;;;;;;;9.30;7.87;;;16.20;99.90;;;;;;5089468;28;20468;-76
2021/07/22 06:05:45;;;;;;;8.50;7.70;;;16.20;99.90;;;;;;5089666;28;20481;-76
2021/07/22 06:08:12;;;;;;;8.93;8.03;;;16.30;99.90;;;;;;5089165;28;20460;-76
2021/07/22 06:10:39;;;;;;;9.33;7.50;;;16.40;99.90;;;;;;5088832;28;20464;-76
2021/07/22 06:13:07;;;;;;;11.00;9.27;;;16.50;99.90;;;;;;5089345;28;20468;-76
2021/07/22 06:15:34;;;;;;;9.83;7.43;;;16.50;99.90;;;;;;5093049;28;20503;-76
2021/07/22 06:18:01;;;;;;;10.67;8.10;;;16.60;99.90;;;;;;5093290;28;20492;-76
2021/07/22 06:20:28;;;;;;;9.87;7.70;;;16.70;99.90;;;;;;5092751;28;20465;-76
2021/07/22 06:22:54;;;;;;;9.90;8.10;;;16.70;99.90;;;;;;5093382;28;20472;-76
2021/07/22 06:25:21;;;;;;;9.77;8.30;;;16.70;99.90;;;;;;5143859;22;20491;-67
2021/07/22 06:27:48;;;;;;;9.93;8.47;;;16.80;99.90;;;;;;5052676;28;20448;-67
2021/07/22 06:30:16;;;;;;;11.07;7.27;;;16.80;99.90;;;;;;5051996;28;20470;-67
2021/07/22 06:32:42;;;;;;;10.13;8.40;;;16.80;99.90;;;;;;5052781;28;20463;-67
2021/07/22 06:35:09;;;;;;;8.93;8.03;;;16.90;99.90;;;;;;5052135;28;20467;-67
2021/07/22 06:37:46;;;;;;;10.20;7.27;;;17.00;99.90;;;;;;5052261;28;21218;-67
2021/07/22 06:40:14;;;;;;;9.10;7.80;;;17.10;99.90;;;;;;5051509;28;20473;-67
2021/07/22 06:42:40;;;;;;;9.20;7.60;;;17.10;99.90;;;;;;5031698;28;20461;-67
2021/07/22 06:45:08;;;;;;;8.77;7.20;;;17.10;99.90;;;;;;5024080;28;20498;-67
2021/07/22 06:47:39;;;;;;;7.87;7.10;;;17.20;99.90;;;;;;5022881;28;20482;-67
2021/07/22 06:50:08;;;;;;;9.67;7.73;;;17.20;99.90;;;;;;5021073;28;20957;-67
2021/07/22 06:52:36;;;;;;;9.80;8.10;;;17.20;99.90;;;;;;5023360;28;20488;-67
2021/07/22 06:55:03;;;;;;;9.00;8.10;;;17.30;99.90;;;;;;5031845;28;20546;-66
2021/07/22 06:57:30;;;;;;;7.50;6.70;;;17.40;99.90;;;;;;5032000;28;20531;-67
2021/07/22 06:59:57;;;;;;;9.63;7.63;;;17.50;99.90;;;;;;5032146;28;20464;-68
2021/07/22 07:02:23;;;;;;;8.63;7.50;;;17.60;99.90;;;;;;5031932;28;20463;-68
2021/07/22 07:04:51;;;;;;;9.50;8.00;;;17.70;99.90;;;;;;5031753;28;20484;-68
2021/07/22 07:07:19;;;;;;;11.00;9.17;;;17.70;99.90;;;;;;5031459;28;20841;-68
2021/07/22 07:09:46;;;;;;;8.87;7.97;;;17.80;99.90;;;;;;5031113;28;20978;-68
2021/07/22 07:12:13;;;;;;;8.70;7.53;;;17.90;99.90;;;;;;5031518;28;20471;-67
2021/07/22 07:14:39;;;;;;;8.87;7.97;;;18.00;99.90;;;;;;5031190;28;20488;-68
2021/07/22 07:17:06;;;;;;;9.90;8.27;;;18.00;99.90;;;;;;5031713;28;20862;-68
2021/07/22 07:19:33;;;;;;;8.80;7.07;;;18.10;99.90;;;;;;5030985;28;20468;-68
2021/07/22 07:22:01;;;;;;;10.53;7.60;;;18.20;99.90;;;;;;5031324;28;20951;-68
2021/07/22 07:24:27;;;;;;;11.53;7.60;;;18.30;99.90;;;;;;5030529;28;20707;-68
2021/07/22 07:26:54;;;;;;;8.63;7.83;;;18.40;99.90;;;;;;5031408;28;20463;-67
2021/07/22 07:29:21;;;;;;;10.70;7.53;;;18.50;99.90;;;;;;5030487;28;20472;-67
2021/07/22 07:31:47;;;;;;;12.43;8.00;;;18.60;99.90;;;;;;5031209;28;20467;-68
2021/07/22 07:34:14;;;;;;;8.40;7.30;;;18.70;99.90;;;;;;5030871;28;20503;-68
2021/07/22 07:36:44;;;;;;;8.77;7.17;;;18.80;99.90;;;;;;5031242;28;20519;-68
2021/07/22 07:39:12;;;;;;;8.73;7.83;;;18.90;99.90;;;;;;5030600;28;20496;-67
2021/07/22 07:41:39;;;;;;;9.10;8.17;;;19.00;99.90;;;;;;5030940;28;20854;-67
2021/07/22 07:44:06;;;;;;;9.60;7.10;;;19.00;99.90;;;;;;5030853;28;20490;-68
2021/07/22 07:46:32;;;;;;;10.77;8.37;;;19.20;99.90;;;;;;5030616;28;20460;-68
2021/07/22 07:48:59;;;;;;;10.60;7.57;;;19.30;99.90;;;;;;5031056;28;20844;-68
2021/07/22 07:51:26;;;;;;;8.23;6.40;;;19.40;99.90;;;;;;5030155;28;20972;-68
2021/07/22 07:53:52;;;;;;;12.80;7.00;;;19.40;99.90;;;;;;5030465;28;20460;-67
2021/07/22 07:56:21;;;;;;;9.00;7.20;;;19.50;99.90;;;;;;5030458;28;20835;-68
2021/07/22 07:58:48;;;;;;;8.13;7.33;;;19.60;99.90;;;;;;5030685;28;20464;-68
2021/07/22 08:01:15;;;;;;;10.33;6.53;;;19.70;99.90;;;;;;5030115;28;20559;-68
2021/07/22 08:03:42;;;;;;;7.60;6.90;;;19.80;99.90;;;;;;5030298;28;20475;-68
2021/07/22 08:06:09;;;;;;;7.93;7.10;;;19.90;99.90;;;;;;5030404;28;20464;-66
2021/07/22 08:08:36;;;;;;;8.80;7.17;;;20.00;99.90;;;;;;5030168;28;20463;-68
2021/07/22 08:11:03;;;;;;;9.07;7.20;;;20.00;99.90;;;;;;5030137;28;20944;-68
2021/07/22 08:13:31;;;;;;;6.90;6.20;;;20.10;99.90;;;;;;5029941;28;20956;-67
2021/07/22 08:15:57;;;;;;;9.83;8.00;;;20.20;99.90;;;;;;5030189;28;20494;-67
2021/07/22 08:18:24;;;;;;;11.17;8.80;;;20.20;99.90;;;;;;5029974;28;20487;-68
2021/07/22 08:20:50;;;;;;;10.63;8.60;;;20.40;99.90;;;;;;5029594;28;20464;-68
2021/07/22 08:23:17;;;;;;;9.10;8.13;;;20.40;99.90;;;;;;5029967;28;20467;-67
2021/07/22 08:25:44;;;;;;;9.80;8.07;;;20.50;99.90;;;;;;5029855;28;21129;-68
2021/07/22 08:28:12;;;;;;;9.60;7.90;;;20.50;99.90;;;;;;5030167;28;20456;-67
2021/07/22 08:30:41;;;;;;;9.50;8.07;;;20.60;99.90;;;;;;5029593;28;20496;-67
2021/07/22 08:33:07;;;;;;;8.13;7.20;;;20.70;99.90;;;;;;5030098;28;20464;-68
2021/07/22 08:35:34;;;;;;;10.07;8.90;;;20.80;99.90;;;;;;5029751;28;20480;-67
2021/07/22 08:38:01;;;;;;;8.50;7.60;;;20.90;99.90;;;;;;5029028;28;20488;-68
2021/07/22 08:40:27;;;;;;;12.23;7.90;;;20.90;99.90;;;;;;5029135;28;20511;-68
2021/07/22 08:42:58;;;;;;;10.27;8.20;;;21.00;99.90;;;;;;5029704;28;20460;-68
2021/07/22 08:45:25;;;;;;;9.87;8.03;;;21.10;99.90;;;;;;5029579;28;20491;-68
2021/07/22 08:47:54;;;;;;;10.93;9.00;;;21.30;99.90;;;;;;5028888;28;20460;-68
2021/07/22 08:50:21;;;;;;;11.37;7.50;;;21.30;99.90;;;;;;5029239;28;20934;-68
2021/07/22 08:52:48;;;;;;;11.90;8.40;;;21.40;99.90;;;;;;5029744;28;20919;-68
2021/07/22 08:55:15;;;;;;;9.60;7.70;;;21.50;99.90;;;;;;5030146;28;20487;-68
2021/07/22 08:57:43;;;;;;;9.50;8.00;;;21.60;99.90;;;;;;5029093;28;20849;-68
2021/07/22 09:00:11;;;;;;;9.97;7.70;;;21.70;99.90;;;;;;5029042;28;20456;-67
2021/07/22 09:02:38;;;;;;;10.83;8.63;;;21.80;99.90;;;;;;5030003;28;20475;-68
2021/07/22 09:05:08;;;;;;;8.20;7.33;;;21.90;99.90;;;;;;5029598;28;20480;-68
2021/07/22 09:07:34;;;;;;;8.50;7.60;;;22.00;99.90;;;;;;5030013;28;20475;-68
2021/07/22 09:10:12;;;;;;;9.10;7.13;;;22.00;99.90;;;;;;5029079;28;20460;-68
2021/07/22 09:12:40;;;;;;;12.80;7.73;;;22.10;99.90;;;;;;5029769;28;20881;-68
2021/07/22 09:15:09;;;;;;;8.60;7.80;;;22.20;99.90;;;;;;5029749;28;20477;-68
2021/07/22 09:17:35;;;;;;;9.60;7.83;;;22.30;99.90;;;;;;5029813;28;20480;-67
2021/07/22 09:20:02;;;;;;;6.87;6.17;;;22.30;99.90;;;;;;5029173;28;20471;-67
2021/07/22 09:22:35;;;;;;;7.17;6.47;;;22.30;99.90;;;;;;5029623;28;20464;-68
2021/07/22 09:25:02;;;;;;;7.60;6.20;;;22.40;99.90;;;;;;5029877;28;20498;-67
2021/07/22 09:27:33;;;;;;;7.30;6.63;;;22.50;99.90;;;;;;5029597;28;20467;-68
2021/07/22 09:30:00;;;;;;;6.93;6.23;;;22.50;99.90;;;;;;5029170;28;20464;-68
2021/07/22 09:32:30;;;;;;;7.43;6.73;;;22.60;99.90;;;;;;5029602;28;20866;-68
2021/07/22 09:35:05;;;;;;;8.83;6.80;;;22.70;99.90;;;;;;5029612;28;20484;-68
2021/07/22 09:37:33;;;;;;;9.50;7.13;;;22.70;99.90;;;;;;5030190;28;20504;-68
2021/07/22 09:40:00;;;;;;;8.17;7.20;;;22.80;99.90;;;;;;5039515;28;20464;-67
2021/07/22 09:42:26;;;;;;;9.43;6.87;;;22.80;99.90;;;;;;5038486;28;20460;-68
2021/07/22 09:44:53;;;;;;;7.77;6.97;;;22.80;99.90;;;;;;5030454;28;20498;-67
2021/07/22 09:47:28;;;;;;;9.03;6.63;;;22.90;99.90;;;;;;5029993;28;20789;-68
2021/07/22 09:50:08;;;;;;;7.73;7.03;;;23.00;99.90;;;;;;5033357;28;20505;-68
2021/07/22 09:52:36;;;;;;;7.73;6.43;;;23.00;99.90;;;;;;5033583;28;20460;-68
2021/07/22 09:55:03;;;;;;;7.50;6.70;;;23.10;99.90;;;;;;5033602;28;21066;-67
2021/07/22 09:57:31;;;;;;;11.30;6.80;;;23.20;99.90;;;;;;5033164;28;20487;-68
2021/07/22 09:59:58;;;;;;;7.63;6.80;;;23.30;99.90;;;;;;5034149;28;20535;-68
2021/07/22 10:02:26;;;;;;;7.77;6.97;;;23.40;99.90;;;;;;5033082;28;20468;-68
2021/07/22 10:04:55;;;;;;;8.03;7.23;;;23.40;99.90;;;;;;5033289;28;20476;-68
2021/07/22 10:07:22;;;;;;;6.77;6.17;;;23.30;99.90;;;;;;5032968;28;20502;-68
2021/07/22 10:09:53;;;;;;;10.73;6.73;;;23.30;99.90;;;;;;5032623;28;20464;-68
2021/07/22 10:12:21;;;;;;;8.33;7.20;;;23.30;99.90;;;;;;5032594;28;20916;-68
2021/07/22 10:14:52;;;;;;;7.30;6.60;;;23.40;99.90;;;;;;5032890;28;20480;-67
2021/07/22 10:17:19;;;;;;;7.30;6.50;;;23.40;99.90;;;;;;5027865;28;20492;-68
2021/07/22 10:19:46;;;;;;;7.80;7.03;;;23.50;99.90;;;;;;5031001;28;20485;-68
2021/07/22 10:22:14;;;;;;;9.03;6.90;;;23.50;99.90;;;;;;5031225;28;20468;-68
2021/07/22 10:24:41;;;;;;;7.67;6.90;;;23.50;99.90;;;;;;5030696;28;20488;-68
2021/07/22 10:27:10;;;;;;;8.73;7.00;;;23.50;99.90;;;;;;5031091;28;20971;-68
2021/07/22 10:29:37;;;;;;;8.20;7.40;;;23.60;99.90;;;;;;5030897;28;20546;-68
2021/07/22 10:32:05;;;;;;;7.33;6.63;;;23.60;99.90;;;;;;5030649;28;20467;-68
2021/07/22 10:34:37;;;;;;;7.50;6.77;;;23.70;99.90;;;;;;5031368;28;20571;-68
2021/07/22 10:37:05;;;;;;;8.17;7.37;;;23.80;99.90;;;;;;5031505;28;20834;-68
2021/07/22 10:40:08;;;;;;;6.83;6.23;;;23.90;99.90;;;;;;5030624;28;20585;-68
2021/07/22 10:42:51;;;;;;;7.40;6.60;;;23.80;99.90;;;;;;4969138;28;20848;-67
2021/07/22 10:45:29;;;;;;;7.33;6.63;;;23.90;99.90;;;;;;4968819;28;20497;-68
2021/07/22 10:48:08;;;;;;;8.23;7.43;;;23.90;99.90;;;;;;5007601;28;20494;-68
2021/07/22 10:51:06;;;;;;;9.10;7.50;;;24.00;99.90;;;;;;5029646;28;20471;-68
2021/07/22 10:54:03;;;;;;;8.67;6.90;;;24.10;99.90;;;;;;5029553;28;20448;-69
2021/07/22 10:56:55;;;;;;;7.23;6.63;;;24.10;99.90;;;;;;5030106;28;20464;-67
2021/07/22 10:59:55;;;;;;;8.80;7.23;;;24.20;99.90;;;;;;5028339;28;20483;-68
2021/07/22 11:02:43;;;;;;;7.23;6.50;;;24.20;99.90;;;;;;5029537;28;21031;-67
2021/07/22 11:05:11;;;;;;;9.20;7.70;;;24.20;99.90;;;;;;5029729;28;20496;-67
2021/07/22 11:07:44;;;;;;;7.13;6.43;;;24.30;99.90;;;;;;5030654;28;20461;-68
2021/07/22 11:10:12;;;;;;;9.03;7.07;;;24.40;99.90;;;;;;5029711;28;20456;-67
2021/07/22 11:12:49;;;;;;;8.37;7.47;;;24.50;99.90;;;;;;5029622;28;20832;-68
2021/07/22 11:16:04;;;;;;;8.70;7.90;;;24.60;99.90;;;;;;5029844;28;20476;-68
2021/07/22 11:18:54;;;;;;;9.40;7.10;;;24.60;99.90;;;;;;5030024;28;20520;-67
2021/07/22 11:21:28;;;;;;;11.00;7.13;;;24.60;99.90;;;;;;5029180;28;20460;-67
2021/07/22 11:24:05;;;;;;;9.13;7.63;;;24.70;99.90;;;;;;5029285;28;20465;-68
2021/07/22 11:26:33;;;;;;;8.23;7.53;;;24.70;99.90;;;;;;5029285;28;20460;-67
2021/07/22 11:29:09;;;;;;;8.23;7.10;;;24.80;99.90;;;;;;5029844;28;20564;-68
2021/07/22 11:31:44;;;;;;;8.03;6.90;;;24.90;99.90;;;;;;5029219;28;20462;-68
2021/07/22 11:34:12;;;;;;;7.27;6.53;;;24.90;99.90;;;;;;5029402;28;20558;-68
2021/07/22 11:36:43;;;;;;;8.80;7.90;;;24.90;99.90;;;;;;5029762;28;20460;-68
2021/07/22 11:39:10;;;;;;;9.03;7.33;;;25.00;99.90;;;;;;5028573;28;21354;-67
2021/07/22 11:42:03;;;;;;;8.50;7.70;;;25.10;99.90;;;;;;5029280;28;20464;-68
2021/07/22 11:44:38;;;;;;;9.10;8.20;;;25.20;99.90;;;;;;5029795;28;20523;-68
2021/07/22 11:47:12;;;;;;;8.07;7.27;;;25.20;99.90;;;;;;5029514;28;20460;-68
2021/07/22 11:49:38;;;;;;;8.23;7.30;;;25.20;99.90;;;;;;5028794;28;20985;-68
2021/07/22 11:52:05;;;;;;;10.83;7.83;;;25.10;99.90;;;;;;5028622;28;20460;-67
2021/07/22 11:54:32;;;;;;;8.77;7.87;;;25.10;99.90;;;;;;5028757;28;20484;-68
2021/07/22 11:56:59;;;;;;;8.43;7.73;;;25.20;99.90;;;;;;5029184;28;20979;-68
2021/07/22 11:59:30;;;;;;;9.20;8.30;;;25.30;99.90;;;;;;5027697;28;20496;-68
2021/07/22 12:01:58;;;;;;;8.27;7.47;;;25.40;99.90;;;;;;5028516;28;20470;-68
2021/07/22 12:04:28;;;;;;;8.60;7.50;;;25.30;99.90;;;;;;5028507;28;20484;-69
2021/07/22 12:06:55;;;;;;;8.20;7.10;;;25.30;99.90;;;;;;5028265;28;20570;-68
2021/07/22 12:09:22;;;;;;;8.70;7.80;;;25.30;99.90;;;;;;5027950;28;20472;-68
2021/07/22 12:11:50;;;;;;;8.13;7.33;;;25.30;99.90;;;;;;5027365;28;20463;-68
2021/07/22 12:14:25;;;;;;;9.23;8.30;;;25.40;99.90;;;;;;5028154;28;20492;-67
2021/07/22 12:16:52;;;;;;;9.50;7.97;;;25.60;99.90;;;;;;5028590;28;21004;-68
2021/07/22 12:19:23;;;;;;;8.57;7.77;;;25.60;99.90;;;;;;5027428;28;20491;-68
2021/07/22 12:22:20;;;;;;;14.20;8.53;;;25.60;99.90;;;;;;5028121;28;20960;-68
2021/07/22 12:24:52;;;;;;;9.67;8.30;;;25.60;99.90;;;;;;5028127;28;20495;-66
2021/07/22 12:27:32;;;;;;;9.03;8.10;;;25.70;99.90;;;;;;5028214;28;20468;-68
2021/07/22 12:30:00;;;;;;;12.10;8.43;;;25.70;99.90;;;;;;5027242;28;20487;-68
2021/07/22 12:32:28;;;;;;;10.23;8.87;;;25.80;99.90;;;;;;5027711;28;20472;-69
2021/07/22 12:34:55;;;;;;;9.70;8.80;;;25.80;99.90;;;;;;5028182;28;20512;-68
2021/07/22 12:37:56;;;;;;;9.03;8.17;;;25.80;99.90;;;;;;5027567;28;20824;-67
2021/07/22 12:40:41;;;;;;;9.13;8.20;;;25.90;99.90;;;;;;5027083;28;20462;-68
2021/07/22 12:43:09;;;;;;;9.23;8.33;;;26.10;99.90;;;;;;5027335;28;20464;-68
2021/07/22 12:45:36;;;;;;;8.10;7.40;;;26.20;99.90;;;;;;5027685;28;20484;-68
2021/07/22 12:48:03;;;;;;;9.73;8.77;;;26.20;99.90;;;;;;5027478;28;20476;-67
2021/07/22 12:50:32;;;;;;;8.80;7.93;;;26.10;99.90;;;;;;5026867;28;20471;-68
2021/07/22 12:53:03;;;;;;;9.13;7.63;;;26.00;99.90;;;;;;5026016;28;20456;-67